Portada
METAR-TAF:

METAR-TAF

Aeropuertos :

Castres, Francia

latitud: 43-33-25N, longitud: 2-17-21E, altitud: 239 m

Observación

El informe se hizo hace 44 minutos, a las 07:30 UTC
Viento 8 kt del sureste, variando entre este y sur-sureste
Temperatura 13°C
Humedad 67%
Presión 1026 hPa
Visibilidad 10 km o más
sin nubes por debajo de 1500 m y sin presencia de cumulonimbus.

METAR: LFCK 280730Z AUTO 13008KT 080V160 CAVOK 13/07 Q1026 NOSIG

Hora: 10:14 (08:14 UTC)

Pronóstico

El informe se hizo hace 3 horas y 14 minutos, a las 05:00 UTC
Pronóstico válido del 28 a las 06 UTC al 28 a las 15 UTC
Viento 6 kt del este-sureste
Visibilidad 10 km o más
sin nubes por debajo de 1500 m y sin presencia de cumulonimbus.
Evolucionando progresivamente
del 28 a las 12 UTC al 28 a las 14 UTC
Viento 10 kt del oeste-noroeste

TAF: LFCK 280500Z 2806/2815 12006KT CAVOK BECMG 2812/2814 30010KT

Observaciones y pronósticos meteorológicos de más de 4000 aeropuertos (mensajes METAR y TAF).

Los puntos amarillos y rojos representan las estaciones disponibles.

Ponga el ratón en el punto deseado para ver el nombre de la estación.

Haga clic para ver las observaciones y los pronósticos meteorológicos.

Para cambiar el mapa : haga clic en los botones verdes con una cruz de color negro para hacer un zoom, en el botón verde con un guión para alejar o en las flechas verdes para mapas adyacentes.


METAR-TAF: